Terminal Aerodrome Forecast
Issued by NWS

Home | Current Version | Previous Version | Text Only | Print | Product List | Glossary On
Versions: 1 2 3 4 5 6 7 8 9 10 11 12 13
000
FTUS42 KMLB 221700
TAFISM
TAF
KISM 221729Z 2218/2318 VRB04KT P6SM FEW040 SCT250
     FM222200 12006KT P6SM VCTS SCT040CB
     FM230000 12006KT P6SM SCT040 SCT060
     FM230300 VRB03KT P6SM SCT250
     FM231400 28005KT P6SM FEW040=

USA.gov is the U.S. government's official web portal to all federal, state and local government web resources and services.